createdAt,value
2019-01-08T00:01:26.174Z,4.50
2019-01-08T00:03:55.053Z,5.17
2019-01-08T00:06:23.760Z,5.70
2019-01-08T00:08:52.456Z,5.20
2019-01-08T00:11:21.260Z,5.13
2019-01-08T00:13:50.209Z,4.50
2019-01-08T00:16:19.845Z,4.07
2019-01-08T00:18:48.764Z,4.47
2019-01-08T00:21:17.436Z,4.33
2019-01-08T00:23:46.193Z,4.30
2019-01-08T00:26:15.162Z,4.27
2019-01-08T00:28:44.146Z,4.80
2019-01-08T00:31:13.101Z,4.80
2019-01-08T00:33:41.849Z,3.63
2019-01-08T00:36:11.535Z,4.10
2019-01-08T00:38:40.202Z,3.93
2019-01-08T00:41:08.934Z,3.47
2019-01-08T00:43:37.895Z,3.27
2019-01-08T00:46:09.789Z,3.83
2019-01-08T00:48:38.681Z,3.40
2019-01-08T00:51:07.884Z,3.90
2019-01-08T00:53:36.633Z,3.83
2019-01-08T00:56:05.365Z,2.50
2019-01-08T00:58:34.825Z,3.40
2019-01-08T01:01:03.560Z,2.80
2019-01-08T01:03:32.299Z,3.13
2019-01-08T01:06:00.995Z,3.53
2019-01-08T01:08:29.662Z,2.83
2019-01-08T01:10:58.543Z,3.80
2019-01-08T01:13:27.258Z,3.70
2019-01-08T01:15:56.223Z,3.13
2019-01-08T01:18:26.589Z,3.03
2019-01-08T01:20:57.610Z,2.97
2019-01-08T01:23:26.318Z,3.63
2019-01-08T01:25:56.710Z,3.10
2019-01-08T01:28:28.483Z,3.00
2019-01-08T01:30:59.990Z,3.20
2019-01-08T01:33:29.382Z,2.57
2019-01-08T01:36:01.354Z,2.20
2019-01-08T01:38:30.526Z,2.23
2019-01-08T01:41:02.855Z,3.00
2019-01-08T01:43:31.816Z,2.43
2019-01-08T01:46:00.510Z,2.50
2019-01-08T01:48:29.263Z,3.37
2019-01-08T01:51:02.462Z,2.50
2019-01-08T01:53:31.431Z,2.40
2019-01-08T01:56:00.262Z,2.27
2019-01-08T01:58:29.169Z,2.50
2019-01-08T02:00:59.147Z,2.20
2019-01-08T02:03:28.402Z,2.70
2019-01-08T02:05:58.999Z,2.83
2019-01-08T02:08:27.924Z,2.90
2019-01-08T02:10:59.886Z,3.20
2019-01-08T02:13:28.569Z,2.80
2019-01-08T02:15:57.610Z,2.80
2019-01-08T02:18:26.394Z,2.37
2019-01-08T02:20:55.287Z,2.20
2019-01-08T02:23:24.077Z,2.67
2019-01-08T02:25:53.206Z,2.77
2019-01-08T02:28:22.403Z,2.67
2019-01-08T02:30:51.330Z,3.50
2019-01-08T02:33:20.135Z,2.80
2019-01-08T02:35:49.010Z,2.73
2019-01-08T02:38:17.711Z,3.00
2019-01-08T02:40:51.045Z,2.90
2019-01-08T02:43:20.409Z,2.60
2019-01-08T02:45:49.247Z,2.87
2019-01-08T02:48:18.183Z,2.57
2019-01-08T02:50:48.421Z,2.63
2019-01-08T02:53:17.484Z,2.40
2019-01-08T02:55:46.946Z,3.13
2019-01-08T02:58:15.790Z,2.90
2019-01-08T03:00:44.810Z,2.73
2019-01-08T03:03:14.060Z,2.43
2019-01-08T03:05:42.887Z,3.23
2019-01-08T03:08:11.647Z,2.80
2019-01-08T03:10:41.448Z,3.13
2019-01-08T03:13:10.145Z,2.37
2019-01-08T03:15:39.758Z,2.73
2019-01-08T03:18:08.534Z,2.87
2019-01-08T03:20:38.756Z,1.93
2019-01-08T03:23:07.458Z,2.77
2019-01-08T03:25:36.292Z,2.17
2019-01-08T03:28:05.040Z,2.10
2019-01-08T03:30:33.710Z,2.70
2019-01-08T03:33:02.962Z,2.77
2019-01-08T03:35:31.874Z,3.10
2019-01-08T03:38:00.557Z,2.50
2019-01-08T03:40:29.285Z,2.10
2019-01-08T03:42:58.257Z,2.40
2019-01-08T03:45:27.467Z,2.60
2019-01-08T03:47:56.482Z,2.43
2019-01-08T03:50:25.362Z,2.00
2019-01-08T03:52:54.294Z,3.07
2019-01-08T03:55:23.738Z,2.47
2019-01-08T03:57:53.356Z,2.80
2019-01-08T04:00:22.553Z,2.93
2019-01-08T04:02:51.646Z,2.03
2019-01-08T04:05:20.450Z,2.77
2019-01-08T04:07:49.582Z,2.20
2019-01-08T04:10:21.466Z,2.03
2019-01-08T04:12:50.568Z,2.53
2019-01-08T04:15:19.261Z,1.73
2019-01-08T04:17:48.318Z,2.03
2019-01-08T04:20:17.250Z,2.77
2019-01-08T04:22:46.211Z,2.40
2019-01-08T04:25:15.036Z,1.97
2019-01-08T04:27:43.751Z,2.80
2019-01-08T04:30:12.691Z,2.57
2019-01-08T04:32:41.458Z,2.30
2019-01-08T04:35:10.392Z,2.80
2019-01-08T04:37:39.379Z,2.10
2019-01-08T04:40:08.200Z,2.23
2019-01-08T04:42:36.876Z,1.93
2019-01-08T04:45:05.941Z,2.17
2019-01-08T04:47:34.753Z,2.40
2019-01-08T04:50:03.559Z,1.87
2019-01-08T04:52:32.285Z,1.47
2019-01-08T04:55:01.059Z,2.37
2019-01-08T04:57:30.636Z,2.33
2019-01-08T04:59:59.424Z,1.67
2019-01-08T05:02:28.115Z,1.70
2019-01-08T05:04:57.194Z,2.43
2019-01-08T05:07:25.906Z,1.77
2019-01-08T05:09:54.721Z,0.83
2019-01-08T05:12:23.434Z,1.87
2019-01-08T05:14:52.472Z,1.72
2019-01-08T05:17:21.595Z,2.07
2019-01-08T05:19:50.390Z,2.43
2019-01-08T05:22:19.575Z,2.20
2019-01-08T05:24:51.712Z,1.10
2019-01-08T05:27:20.436Z,1.40
2019-01-08T05:29:49.218Z,1.73
2019-01-08T05:32:18.256Z,1.80
2019-01-08T05:34:46.940Z,2.07
2019-01-08T05:37:15.627Z,2.87
2019-01-08T05:39:44.526Z,1.70
2019-01-08T05:42:13.667Z,1.93
2019-01-08T05:44:42.689Z,2.30
2019-01-08T05:47:11.526Z,1.67
2019-01-08T05:49:40.395Z,2.33
2019-01-08T05:52:09.359Z,1.33
2019-01-08T05:54:38.353Z,2.30
2019-01-08T05:57:07.298Z,2.20
2019-01-08T05:59:36.103Z,2.03
2019-01-08T06:02:05.042Z,1.93
2019-01-08T06:04:33.994Z,2.47
2019-01-08T06:07:02.697Z,2.43
2019-01-08T06:09:31.644Z,1.97
2019-01-08T06:12:00.603Z,1.77
2019-01-08T06:14:29.892Z,1.67
2019-01-08T06:16:58.884Z,2.63
2019-01-08T06:19:27.787Z,2.83
2019-01-08T06:21:56.821Z,1.77
2019-01-08T06:24:25.556Z,2.27
2019-01-08T06:26:54.259Z,1.77
2019-01-08T06:29:23.050Z,1.70
2019-01-08T06:31:51.740Z,2.00
2019-01-08T06:34:20.838Z,1.33
2019-01-08T06:36:49.609Z,1.57
2019-01-08T06:39:18.476Z,1.57
2019-01-08T06:41:49.485Z,1.87
2019-01-08T06:44:18.221Z,0.90
2019-01-08T06:46:46.929Z,1.77
2019-01-08T06:49:15.775Z,1.90
2019-01-08T06:51:44.629Z,1.77
2019-01-08T06:54:13.370Z,1.70
2019-01-08T06:56:42.036Z,1.53
2019-01-08T06:59:10.728Z,1.93
2019-01-08T07:01:39.482Z,1.30
2019-01-08T07:04:08.148Z,1.73
2019-01-08T07:06:36.903Z,1.90
2019-01-08T07:09:07.192Z,1.53
2019-01-08T07:11:35.870Z,1.00
2019-01-08T07:14:04.905Z,2.30
2019-01-08T07:16:33.595Z,1.30
2019-01-08T07:19:02.279Z,1.23
2019-01-08T07:21:30.965Z,2.20
2019-01-08T07:23:59.663Z,1.73
2019-01-08T07:26:28.354Z,1.53
2019-01-08T07:28:57.121Z,1.40
2019-01-08T07:31:25.800Z,1.03
2019-01-08T07:33:54.789Z,1.80
2019-01-08T07:36:23.495Z,1.70
2019-01-08T07:38:52.202Z,1.70
2019-01-08T07:41:20.900Z,1.80
2019-01-08T07:43:50.803Z,2.63
2019-01-08T07:46:19.534Z,1.67
2019-01-08T07:48:48.518Z,1.07
2019-01-08T07:51:18.315Z,1.80
2019-01-08T07:53:47.041Z,1.73
2019-01-08T07:56:15.947Z,2.17
2019-01-08T07:58:44.973Z,2.70
2019-01-08T08:01:13.645Z,1.97
2019-01-08T08:03:42.602Z,1.33
2019-01-08T08:06:12.128Z,1.90
2019-01-08T08:08:40.814Z,1.70
2019-01-08T08:11:09.529Z,1.77
2019-01-08T08:13:38.274Z,1.40
2019-01-08T08:16:06.935Z,1.40
2019-01-08T08:18:35.855Z,1.37
2019-01-08T08:21:04.614Z,1.60
2019-01-08T08:23:33.266Z,1.27
2019-01-08T08:26:01.943Z,1.90
2019-01-08T08:28:30.658Z,1.60
2019-01-08T08:30:59.361Z,1.90
2019-01-08T08:33:28.583Z,1.73
2019-01-08T08:35:57.568Z,1.37
2019-01-08T08:38:26.246Z,1.03
2019-01-08T08:40:57.133Z,0.73
2019-01-08T08:43:26.074Z,0.97
2019-01-08T08:45:55.094Z,1.30
2019-01-08T08:48:23.970Z,1.40
2019-01-08T08:50:53.594Z,1.13
2019-01-08T08:53:23.111Z,1.80
2019-01-08T08:55:51.978Z,2.10
2019-01-08T08:58:20.670Z,1.17
2019-01-08T09:00:52.277Z,1.50
2019-01-08T09:03:21.035Z,2.00
2019-01-08T09:05:51.222Z,1.37
2019-01-08T09:08:19.895Z,1.23
2019-01-08T09:10:48.849Z,2.03
2019-01-08T09:13:17.561Z,1.30
2019-01-08T09:15:46.474Z,1.20
2019-01-08T09:18:15.138Z,0.70
2019-01-08T09:20:44.074Z,2.33
2019-01-08T09:23:12.822Z,1.10
2019-01-08T09:25:43.932Z,1.13
2019-01-08T09:28:12.630Z,1.60
2019-01-08T09:30:41.583Z,1.43
2019-01-08T09:33:10.573Z,1.63
2019-01-08T09:35:42.427Z,1.67
2019-01-08T09:38:11.091Z,1.40
2019-01-08T09:40:39.855Z,1.00
2019-01-08T09:43:08.916Z,1.23
2019-01-08T09:45:37.722Z,1.87
2019-01-08T09:48:06.583Z,0.80
2019-01-08T09:50:35.500Z,1.80
2019-01-08T09:53:04.237Z,1.67
2019-01-08T09:55:33.875Z,1.10
2019-01-08T09:58:02.563Z,0.90
2019-01-08T10:00:31.315Z,0.97
2019-01-08T10:03:00.331Z,1.40
2019-01-08T10:05:29.644Z,1.57
2019-01-08T10:07:58.327Z,0.90
2019-01-08T10:10:27.110Z,1.00
2019-01-08T10:12:55.922Z,1.00
2019-01-08T10:15:24.624Z,1.13
2019-01-08T10:17:53.350Z,1.13
2019-01-08T10:20:22.038Z,0.80
2019-01-08T10:22:50.989Z,1.50
2019-01-08T10:25:19.724Z,1.23
2019-01-08T10:27:48.747Z,1.47
2019-01-08T10:30:17.462Z,0.83
2019-01-08T10:32:46.149Z,1.43
2019-01-08T10:35:15.046Z,1.13
2019-01-08T10:37:44.066Z,1.33
2019-01-08T10:40:12.741Z,1.00
2019-01-08T10:42:41.449Z,1.23
2019-01-08T10:45:10.654Z,1.90
2019-01-08T10:47:39.318Z,1.20
2019-01-08T10:50:08.327Z,1.50
2019-01-08T10:52:36.991Z,1.87
2019-01-08T10:55:05.896Z,1.43
2019-01-08T10:57:35.202Z,1.17
2019-01-08T11:00:04.731Z,1.37
2019-01-08T11:02:33.415Z,1.20
2019-01-08T11:05:02.158Z,1.50
2019-01-08T11:07:31.350Z,1.07
2019-01-08T11:10:00.773Z,1.17
2019-01-08T11:12:29.675Z,1.23
2019-01-08T11:14:58.583Z,1.93
2019-01-08T11:17:27.321Z,1.37
2019-01-08T11:19:56.423Z,9.83
2019-01-08T11:22:25.487Z,1.47
2019-01-08T11:24:54.172Z,1.27
2019-01-08T11:27:23.743Z,1.30
2019-01-08T11:29:52.939Z,0.80
2019-01-08T11:32:21.991Z,1.30
2019-01-08T11:34:51.342Z,1.17
2019-01-08T11:37:20.167Z,0.67
2019-01-08T11:39:49.083Z,1.03
2019-01-08T11:42:18.016Z,0.73
2019-01-08T11:44:46.759Z,1.50
2019-01-08T11:47:15.445Z,1.30
2019-01-08T11:49:44.258Z,0.90
2019-01-08T11:52:12.977Z,0.67
2019-01-08T11:54:41.849Z,0.70
2019-01-08T11:57:10.961Z,1.00
2019-01-08T11:59:39.937Z,1.00
2019-01-08T12:02:08.980Z,0.97
2019-01-08T12:04:38.060Z,1.67
2019-01-08T12:07:06.894Z,0.50
2019-01-08T12:09:35.571Z,0.70
2019-01-08T12:12:04.254Z,0.87
2019-01-08T12:14:33.170Z,1.10
2019-01-08T12:17:01.911Z,0.70
2019-01-08T12:19:30.700Z,0.93
2019-01-08T12:21:59.646Z,1.10
2019-01-08T12:24:28.339Z,0.80
2019-01-08T12:26:57.373Z,0.53
2019-01-08T12:29:26.088Z,1.03
2019-01-08T12:31:55.863Z,0.83
2019-01-08T12:34:25.044Z,1.27
2019-01-08T12:36:54.211Z,0.70
2019-01-08T12:39:22.886Z,1.17
2019-01-08T12:41:51.830Z,0.97
2019-01-08T12:44:20.518Z,1.13
2019-01-08T12:46:49.353Z,0.80
2019-01-08T12:49:18.187Z,0.80
2019-01-08T12:51:46.914Z,1.03
2019-01-08T12:54:15.675Z,0.80
2019-01-08T12:56:44.632Z,1.00
2019-01-08T12:59:13.374Z,0.80
2019-01-08T13:01:43.098Z,1.40
2019-01-08T13:04:12.339Z,1.90
2019-01-08T13:06:41.032Z,1.37
2019-01-08T13:09:10.042Z,1.20
2019-01-08T13:11:38.781Z,1.30
2019-01-08T13:14:07.714Z,1.13
2019-01-08T13:16:36.732Z,1.17
2019-01-08T13:19:05.652Z,0.90
2019-01-08T13:21:34.326Z,1.20
2019-01-08T13:24:03.022Z,1.37
2019-01-08T13:26:32.085Z,1.30
2019-01-08T13:29:00.782Z,1.70
2019-01-08T13:31:29.557Z,1.10
2019-01-08T13:33:59.736Z,1.23
2019-01-08T13:36:28.540Z,1.37
2019-01-08T13:38:57.263Z,1.07
2019-01-08T13:41:26.114Z,2.43
2019-01-08T13:43:55.129Z,1.20
2019-01-08T13:46:25.494Z,1.00
2019-01-08T13:48:54.835Z,0.80
2019-01-08T13:51:23.837Z,0.70
2019-01-08T13:53:52.542Z,0.57
2019-01-08T13:56:21.460Z,1.10
2019-01-08T13:58:50.181Z,1.00
2019-01-08T14:01:19.108Z,2.67
2019-01-08T14:03:48.176Z,2.57
2019-01-08T14:06:17.117Z,1.20
2019-01-08T14:08:46.063Z,2.80
2019-01-08T14:11:15.022Z,0.43
2019-01-08T14:13:43.770Z,0.93
2019-01-08T14:16:12.491Z,2.40
2019-01-08T14:18:41.287Z,1.43
2019-01-08T14:21:10.009Z,1.50
2019-01-08T14:23:38.992Z,2.07
2019-01-08T14:26:07.715Z,1.30
2019-01-08T14:28:39.029Z,1.00
2019-01-08T14:31:07.730Z,1.00
2019-01-08T14:33:38.259Z,0.87
2019-01-08T14:36:06.978Z,1.23
2019-01-08T14:38:35.750Z,1.60
2019-01-08T14:41:04.871Z,1.23
2019-01-08T14:43:33.805Z,1.03
2019-01-08T14:46:02.781Z,1.03
2019-01-08T14:48:31.674Z,1.10
2019-01-08T14:51:00.379Z,0.80
2019-01-08T14:53:29.444Z,0.97
2019-01-08T14:55:58.747Z,1.43
2019-01-08T14:58:28.071Z,1.03
2019-01-08T15:00:57.359Z,1.13
2019-01-08T15:03:26.279Z,0.77
2019-01-08T15:06:00.277Z,0.70
2019-01-08T15:08:29.315Z,0.87
2019-01-08T15:10:58.240Z,1.17
2019-01-08T15:13:26.983Z,1.27
2019-01-08T15:15:58.459Z,1.37
2019-01-08T15:18:27.386Z,2.03
2019-01-08T15:20:56.330Z,1.77
2019-01-08T15:23:25.335Z,1.20
2019-01-08T15:25:54.297Z,1.33
2019-01-08T15:28:22.981Z,1.27
2019-01-08T15:30:51.767Z,1.97
2019-01-08T15:33:21.441Z,1.30
2019-01-08T15:35:50.391Z,1.13
2019-01-08T15:38:19.298Z,2.23
2019-01-08T15:40:51.344Z,1.60
2019-01-08T15:43:20.389Z,1.40
2019-01-08T15:45:52.316Z,2.17
2019-01-08T15:48:24.356Z,2.17
2019-01-08T15:50:53.216Z,1.87
2019-01-08T15:53:29.535Z,2.10
2019-01-08T15:56:00.016Z,2.00
2019-01-08T15:58:29.211Z,2.03
2019-01-08T16:00:58.739Z,2.20
2019-01-08T16:03:27.690Z,1.80
2019-01-08T16:06:00.109Z,2.17
2019-01-08T16:08:29.994Z,2.77
2019-01-08T16:11:01.599Z,1.87
2019-01-08T16:13:30.325Z,2.40
2019-01-08T16:15:59.171Z,1.77
2019-01-08T16:18:28.158Z,2.00
2019-01-08T16:20:57.108Z,2.23
2019-01-08T16:23:29.557Z,1.63
2019-01-08T16:25:56.822Z,1.63
2019-01-08T16:28:28.755Z,1.53
2019-01-08T16:30:57.786Z,1.70
2019-01-08T16:33:26.830Z,1.33
2019-01-08T16:35:56.856Z,1.83
2019-01-08T16:38:25.935Z,1.07
2019-01-08T16:40:57.391Z,2.03
2019-01-08T16:43:26.244Z,1.93
2019-01-08T16:45:58.444Z,2.00
2019-01-08T16:48:27.189Z,1.87
2019-01-08T16:50:56.698Z,2.13
2019-01-08T16:53:27.882Z,0.23
2019-01-08T16:55:56.731Z,0.67
2019-01-08T16:58:25.783Z,0.97
2019-01-08T17:00:58.429Z,1.30
2019-01-08T17:03:27.241Z,1.10
2019-01-08T17:05:58.533Z,1.30
2019-01-08T17:08:27.891Z,1.90
2019-01-08T17:10:57.258Z,1.30
2019-01-08T17:13:26.558Z,0.90
2019-01-08T17:15:58.003Z,1.37
2019-01-08T17:18:28.515Z,1.40
2019-01-08T17:20:57.408Z,1.73
2019-01-08T17:23:26.473Z,1.33
2019-01-08T17:25:56.366Z,1.40
2019-01-08T17:28:25.070Z,1.47
2019-01-08T17:30:55.498Z,1.40
2019-01-08T17:33:33.403Z,1.40
2019-01-08T17:35:55.008Z,2.00
2019-01-08T17:38:24.481Z,1.60
2019-01-08T17:40:53.347Z,1.00
2019-01-08T17:43:22.078Z,1.55
2019-01-08T17:45:51.229Z,1.83
2019-01-08T17:48:20.335Z,2.03
2019-01-08T17:50:49.315Z,1.47
2019-01-08T17:53:18.499Z,1.50
2019-01-08T17:55:47.577Z,2.20
2019-01-08T17:58:36.319Z,1.87
2019-01-08T18:01:11.013Z,1.52
2019-01-08T18:03:42.863Z,0.87
2019-01-08T18:06:10.455Z,0.97
2019-01-08T18:08:39.263Z,1.13
2019-01-08T18:11:08.439Z,0.87
2019-01-08T18:13:37.344Z,1.57
2019-01-08T18:16:06.395Z,2.27
2019-01-08T18:18:35.459Z,1.50
2019-01-08T18:21:04.292Z,0.80
2019-01-08T18:23:33.376Z,1.70
2019-01-08T18:26:02.307Z,2.20
2019-01-08T18:28:31.474Z,1.17
2019-01-08T18:31:00.223Z,1.47
2019-01-08T18:33:31.038Z,0.90
2019-01-08T18:36:00.161Z,1.17
2019-01-08T18:38:28.985Z,1.30
2019-01-08T18:40:58.101Z,0.97
2019-01-08T18:43:27.102Z,1.50
2019-01-08T18:45:55.986Z,1.10
2019-01-08T18:48:24.721Z,1.43
2019-01-08T18:50:54.008Z,1.33
2019-01-08T18:53:22.778Z,2.03
2019-01-08T18:55:51.511Z,1.97
2019-01-08T18:58:20.228Z,1.30
2019-01-08T19:00:49.078Z,1.27
2019-01-08T19:03:17.927Z,1.70
2019-01-08T19:05:46.960Z,2.07
2019-01-08T19:08:15.734Z,2.40
2019-01-08T19:10:44.878Z,1.73
2019-01-08T19:13:13.631Z,3.27
2019-01-08T19:15:44.531Z,1.12
2019-01-08T19:18:13.233Z,2.17
2019-01-08T19:20:41.967Z,1.37
2019-01-08T19:23:10.707Z,1.30
2019-01-08T19:25:39.958Z,1.10
2019-01-08T19:28:08.939Z,1.37
2019-01-08T19:30:39.341Z,1.30
2019-01-08T19:33:08.287Z,1.40
2019-01-08T19:35:36.987Z,1.30
2019-01-08T19:38:06.059Z,1.50
2019-01-08T19:40:34.739Z,1.10
2019-01-08T19:43:03.809Z,1.47
2019-01-08T19:45:32.514Z,0.50
2019-01-08T19:48:01.223Z,1.20
2019-01-08T19:50:30.408Z,0.80
2019-01-08T19:52:59.237Z,1.23
2019-01-08T19:55:28.766Z,0.90
2019-01-08T19:57:57.643Z,1.40
2019-01-08T20:00:26.484Z,0.83
2019-01-08T20:02:55.190Z,1.20
2019-01-08T20:05:23.907Z,2.23
2019-01-08T20:07:52.954Z,1.83
2019-01-08T20:10:21.842Z,0.90
2019-01-08T20:12:52.202Z,1.00
2019-01-08T20:15:21.140Z,1.30
2019-01-08T20:17:50.073Z,0.93
2019-01-08T20:20:18.847Z,0.87
2019-01-08T20:22:47.570Z,1.20
2019-01-08T20:25:16.519Z,0.77
2019-01-08T20:27:45.591Z,0.93
2019-01-08T20:30:14.553Z,1.07
2019-01-08T20:32:43.225Z,0.80
2019-01-08T20:35:12.020Z,1.30
2019-01-08T20:37:40.726Z,0.77
2019-01-08T20:40:10.129Z,0.90
2019-01-08T20:42:39.068Z,1.00
2019-01-08T20:45:07.839Z,1.30
2019-01-08T20:47:36.750Z,0.70
2019-01-08T20:50:05.715Z,1.20
2019-01-08T20:52:34.530Z,0.97
2019-01-08T20:55:03.344Z,0.73
2019-01-08T20:57:32.095Z,1.00
2019-01-08T21:00:00.995Z,1.03
2019-01-08T21:02:29.662Z,1.90
2019-01-08T21:04:58.830Z,0.80
2019-01-08T21:07:27.939Z,0.77
2019-01-08T21:09:56.632Z,1.03
2019-01-08T21:12:25.384Z,0.80
2019-01-08T21:14:54.118Z,1.10
2019-01-08T21:17:22.792Z,1.03
2019-01-08T21:19:51.901Z,1.20
2019-01-08T21:22:20.610Z,1.30
2019-01-08T21:24:49.536Z,1.10
2019-01-08T21:27:18.552Z,1.03
2019-01-08T21:29:47.259Z,0.93
2019-01-08T21:32:16.146Z,1.03
2019-01-08T21:34:45.415Z,1.27
2019-01-08T21:37:14.290Z,1.10
2019-01-08T21:39:42.999Z,0.90
2019-01-08T21:42:11.962Z,1.30
2019-01-08T21:44:42.292Z,1.00
2019-01-08T21:47:11.186Z,0.90
2019-01-08T21:49:42.139Z,0.80
2019-01-08T21:52:11.262Z,1.30
2019-01-08T21:54:39.920Z,1.10
2019-01-08T21:57:08.626Z,0.80
2019-01-08T21:59:37.310Z,0.90
2019-01-08T22:02:06.511Z,0.70
2019-01-08T22:04:35.320Z,0.83
2019-01-08T22:07:04.302Z,0.80
2019-01-08T22:09:32.992Z,0.77
2019-01-08T22:12:01.787Z,1.17
2019-01-08T22:14:30.464Z,0.83
2019-01-08T22:16:59.121Z,0.43
2019-01-08T22:19:28.207Z,0.73
2019-01-08T22:21:57.044Z,0.67
2019-01-08T22:24:25.707Z,0.75
2019-01-08T22:26:54.482Z,1.20
2019-01-08T22:29:23.433Z,1.00
2019-01-08T22:31:52.087Z,0.60
2019-01-08T22:34:21.104Z,1.23
2019-01-08T22:36:49.842Z,0.30
2019-01-08T22:39:18.815Z,0.73
2019-01-08T22:41:47.591Z,0.80
2019-01-08T22:44:16.267Z,0.60
2019-01-08T22:46:45.003Z,0.60
2019-01-08T22:49:13.925Z,0.90
2019-01-08T22:51:42.726Z,0.47
2019-01-08T22:54:11.436Z,0.90
2019-01-08T22:56:40.370Z,0.90
2019-01-08T22:59:09.176Z,0.77
2019-01-08T23:01:42.615Z,0.50
2019-01-08T23:04:12.675Z,0.60
2019-01-08T23:06:41.698Z,0.50
2019-01-08T23:09:11.655Z,0.50
2019-01-08T23:11:41.233Z,0.73
2019-01-08T23:14:09.979Z,0.70
2019-01-08T23:16:38.954Z,0.40
2019-01-08T23:19:08.165Z,0.50
2019-01-08T23:21:37.172Z,0.60
2019-01-08T23:24:06.223Z,0.30
2019-01-08T23:26:35.261Z,0.50
2019-01-08T23:29:04.191Z,0.70
2019-01-08T23:31:33.367Z,0.30
2019-01-08T23:34:02.499Z,0.30
2019-01-08T23:36:31.199Z,0.20
2019-01-08T23:39:00.363Z,0.43
2019-01-08T23:41:29.344Z,0.50
2019-01-08T23:43:58.218Z,0.40
2019-01-08T23:46:26.890Z,0.83
2019-01-08T23:48:55.905Z,0.77
2019-01-08T23:51:24.821Z,0.40
2019-01-08T23:53:54.882Z,0.43
2019-01-08T23:56:24.634Z,0.30
2019-01-08T23:58:53.391Z,1.07
